Time;durP1;ratioP1;P1;durP2;ratioP2;P2;SDS_P1;SDS_P2;PMS_P1;PMS_P2;Temp;Humidity;BMP_temperature;BMP_pressure;BME280_temperature;BME280_humidity;BME280_pressure;Samples;Min_cycle;Max_cycle;Signal;HPM_P1;HPM_P2
2021/07/29 00:41:54;;;;;;;711.73;678.73;;;15.00;99.90;;;;;;5069701;28;20546;-81
2021/07/29 01:42:06;;;;;;;818.88;790.53;;;14.50;99.90;;;;;;5559250;22;15040893;-83
2021/07/29 01:44:35;;;;;;;816.37;789.43;;;14.50;99.90;;;;;;6152278;23;20469;-83
2021/07/29 01:47:22;;;;;;;773.87;749.77;;;14.30;99.90;;;;;;6194055;23;20444;-83
2021/07/29 01:49:56;;;;;;;769.63;745.97;;;14.30;99.90;;;;;;6194020;23;20469;-82
2021/07/29 01:52:25;;;;;;;773.37;749.77;;;14.40;99.90;;;;;;6194071;23;20450;-82
2021/07/29 01:55:00;;;;;;;741.10;718.60;;;14.30;99.90;;;;;;6203898;23;20400;-83
2021/07/29 01:57:28;;;;;;;700.23;679.27;;;14.40;99.90;;;;;;6203715;23;20578;-81
2021/07/29 01:59:56;;;;;;;679.57;659.30;;;14.50;99.90;;;;;;6192168;23;20954;-82
2021/07/29 02:02:23;;;;;;;676.23;655.93;;;14.50;99.90;;;;;;6193502;23;20876;-82
2021/07/29 02:04:50;;;;;;;713.00;691.67;;;14.40;99.90;;;;;;6193914;23;20402;-81
2021/07/29 02:07:17;;;;;;;735.67;713.40;;;14.50;99.90;;;;;;6203592;23;20429;-82
2021/07/29 02:09:43;;;;;;;634.03;614.93;;;14.40;99.90;;;;;;6193816;23;20432;-83
2021/07/29 02:12:10;;;;;;;599.90;581.90;;;14.40;99.90;;;;;;6203546;23;20422;-83
2021/07/29 02:14:37;;;;;;;516.73;500.93;;;14.30;99.90;;;;;;6202452;23;20478;-82
2021/07/29 02:17:07;;;;;;;486.17;471.37;;;14.30;99.90;;;;;;6193739;23;20453;-81
2021/07/29 02:19:34;;;;;;;507.67;492.27;;;14.20;99.90;;;;;;6204005;23;20924;-82
2021/07/29 02:22:01;;;;;;;505.63;490.27;;;14.10;99.90;;;;;;6193915;23;20459;-81
2021/07/29 02:24:29;;;;;;;465.50;451.27;;;14.10;99.90;;;;;;6193757;23;20439;-81
2021/07/29 02:26:56;;;;;;;418.50;405.50;;;14.10;99.90;;;;;;6203405;23;20431;-81
2021/07/29 02:29:23;;;;;;;399.70;387.10;;;14.20;99.90;;;;;;6193448;23;20749;-81
2021/07/29 02:31:50;;;;;;;430.00;416.80;;;14.20;99.90;;;;;;6192445;23;20874;-80
2021/07/29 02:34:18;;;;;;;400.40;387.87;;;14.20;99.90;;;;;;6193333;23;20922;-83
2021/07/29 02:36:45;;;;;;;402.60;390.00;;;14.20;99.90;;;;;;6193789;23;20493;-83
2021/07/29 02:39:12;;;;;;;406.10;393.40;;;14.00;99.90;;;;;;6189039;23;20789;-82
2021/07/29 02:41:39;;;;;;;408.17;395.47;;;14.00;99.90;;;;;;6186908;23;20445;-83
2021/07/29 02:44:06;;;;;;;430.03;416.67;;;14.00;99.90;;;;;;6196443;23;20434;-82
2021/07/29 02:46:33;;;;;;;432.57;419.23;;;14.00;99.90;;;;;;6195250;23;20437;-82
2021/07/29 02:49:00;;;;;;;418.63;405.63;;;14.00;99.90;;;;;;6187073;23;20404;-82
2021/07/29 02:51:28;;;;;;;394.53;382.13;;;14.00;99.90;;;;;;6186930;23;20489;-82
2021/07/29 02:53:55;;;;;;;388.33;376.13;;;14.00;99.90;;;;;;6196882;23;20409;-84
2021/07/29 02:56:21;;;;;;;399.73;387.27;;;14.00;99.90;;;;;;6186534;23;20398;-85
2021/07/29 02:58:48;;;;;;;388.77;376.57;;;13.90;99.90;;;;;;6187046;23;20437;-82
2021/07/29 03:01:15;;;;;;;373.30;361.40;;;14.00;99.90;;;;;;6185349;23;20406;-83
2021/07/29 03:03:43;;;;;;;387.90;375.80;;;14.00;99.90;;;;;;6186484;23;20397;-84
2021/07/29 03:06:18;;;;;;;382.70;370.60;;;14.00;99.90;;;;;;6186407;23;20487;-82
2021/07/29 03:08:48;;;;;;;388.07;375.87;;;14.10;99.90;;;;;;6196709;23;20488;-85
2021/07/29 03:11:16;;;;;;;393.57;381.20;;;14.20;99.90;;;;;;6196231;23;20428;-83
2021/07/29 03:13:44;;;;;;;384.60;372.40;;;14.10;99.90;;;;;;6186756;23;20397;-84
2021/07/29 03:16:13;;;;;;;380.50;368.40;;;14.10;99.90;;;;;;6185320;23;20797;-82
2021/07/29 03:18:41;;;;;;;381.47;369.43;;;14.10;99.90;;;;;;6169162;23;20421;-84
2021/07/29 03:21:09;;;;;;;353.20;341.80;;;14.10;99.90;;;;;;6186173;23;20404;-84
2021/07/29 03:23:35;;;;;;;347.27;336.00;;;14.20;99.90;;;;;;6186141;23;20430;-84
2021/07/29 03:26:09;;;;;;;342.70;331.60;;;14.20;99.90;;;;;;6196290;23;20996;-82
2021/07/29 03:28:36;;;;;;;333.13;322.20;;;14.20;99.90;;;;;;6186516;23;20432;-84
2021/07/29 03:31:03;;;;;;;334.30;323.27;;;14.30;99.90;;;;;;6184615;23;20969;-83
2021/07/29 03:33:30;;;;;;;359.20;347.70;;;14.60;99.90;;;;;;6186107;23;20935;-83
2021/07/29 03:35:57;;;;;;;368.07;356.27;;;14.50;99.90;;;;;;6186130;23;20412;-82
2021/07/29 03:38:23;;;;;;;361.93;350.30;;;14.50;99.90;;;;;;6186061;23;20434;-83
2021/07/29 03:40:50;;;;;;;383.37;371.17;;;14.60;99.90;;;;;;6186384;23;20489;-84
2021/07/29 03:43:18;;;;;;;386.97;374.70;;;14.70;99.90;;;;;;6186442;23;20459;-82
2021/07/29 03:45:45;;;;;;;398.07;385.47;;;14.80;99.90;;;;;;6185052;23;20407;-83
2021/07/29 03:48:12;;;;;;;342.83;331.57;;;14.80;99.90;;;;;;6186365;23;20494;-83
2021/07/29 03:50:42;;;;;;;350.70;339.20;;;15.00;99.90;;;;;;6185795;23;20420;-83
2021/07/29 03:53:08;;;;;;;386.00;373.70;;;15.00;99.90;;;;;;6195831;23;20473;-82
2021/07/29 03:55:35;;;;;;;370.73;358.80;;;15.10;99.90;;;;;;6185870;23;20444;-76
2021/07/29 03:58:02;;;;;;;365.57;353.83;;;15.10;99.90;;;;;;6185962;23;20408;-77
2021/07/29 04:00:30;;;;;;;471.30;456.80;;;15.10;99.30;;;;;;6184371;23;20411;-76
2021/07/29 04:02:59;;;;;;;423.13;409.87;;;15.10;99.60;;;;;;6186115;23;20404;-76
2021/07/29 04:05:26;;;;;;;439.60;425.70;;;15.10;98.80;;;;;;6186111;23;20401;-79
2021/07/29 04:07:52;;;;;;;439.27;425.47;;;15.00;98.90;;;;;;6185653;23;20432;-76
2021/07/29 04:10:19;;;;;;;398.53;385.73;;;15.00;99.40;;;;;;6186115;23;20412;-76
2021/07/29 04:12:46;;;;;;;290.03;279.93;;;15.00;98.80;;;;;;6186168;23;20397;-76
2021/07/29 04:18:37;;;;;;;352.27;340.63;;;15.00;96.40;;;;;;6060896;23;20441;-86
2021/07/29 04:21:05;;;;;;;251.63;242.43;;;14.80;95.90;;;;;;6185857;23;20428;-86
2021/07/29 04:23:34;;;;;;;252.07;242.87;;;14.80;95.70;;;;;;6195489;23;20439;-84
2021/07/29 04:26:03;;;;;;;226.67;218.13;;;14.80;95.00;;;;;;6185966;23;20408;-83
2021/07/29 04:28:36;;;;;;;219.97;211.57;;;14.80;94.80;;;;;;6195722;23;20436;-84
2021/07/29 04:31:13;;;;;;;204.67;196.70;;;14.90;94.20;;;;;;6184465;23;20405;-85
2021/07/29 04:33:42;;;;;;;182.33;175.03;;;14.90;93.00;;;;;;6195878;23;20407;-85
2021/07/29 04:39:22;;;;;;;175.97;168.87;;;15.10;89.30;;;;;;6142875;23;20418;-79
2021/07/29 04:41:49;;;;;;;201.30;193.53;;;15.20;85.40;;;;;;6185340;23;20432;-79
2021/07/29 04:44:17;;;;;;;233.27;224.80;;;15.30;85.10;;;;;;6185797;23;20484;-79
2021/07/29 04:46:44;;;;;;;262.10;252.87;;;15.30;84.60;;;;;;6184252;23;20475;-80
2021/07/29 04:49:13;;;;;;;219.13;211.00;;;15.30;85.50;;;;;;6185194;23;20440;-81
2021/07/29 04:51:41;;;;;;;187.07;179.77;;;15.40;82.80;;;;;;6185701;23;20405;-80
2021/07/29 04:54:08;;;;;;;166.20;159.50;;;15.40;81.90;;;;;;6195428;23;20727;-81
2021/07/29 04:56:35;;;;;;;196.27;188.63;;;15.40;80.40;;;;;;6185696;23;20401;-80
2021/07/29 04:59:02;;;;;;;242.97;234.30;;;15.50;78.20;;;;;;6195286;23;20444;-83
2021/07/29 05:01:29;;;;;;;193.13;185.63;;;15.50;79.60;;;;;;6193653;23;20817;-79
2021/07/29 05:03:55;;;;;;;181.87;174.57;;;15.60;79.80;;;;;;6195447;23;20488;-79
2021/07/29 05:06:25;;;;;;;191.40;183.90;;;15.60;79.10;;;;;;6195220;23;20400;-82
2021/07/29 05:08:52;;;;;;;197.17;189.57;;;15.60;77.70;;;;;;6195862;23;20941;-85
2021/07/29 05:11:18;;;;;;;158.67;152.17;;;15.70;76.50;;;;;;6186280;23;20791;-84
2021/07/29 05:13:45;;;;;;;174.30;167.00;;;15.80;75.40;;;;;;6186772;23;20873;-84
2021/07/29 05:16:12;;;;;;;157.20;150.73;;;15.80;74.40;;;;;;6184918;23;20402;-81
2021/07/29 05:18:39;;;;;;;154.63;148.20;;;15.90;74.30;;;;;;6185991;23;21036;-83
2021/07/29 05:21:08;;;;;;;116.53;111.30;;;16.00;72.90;;;;;;6195384;23;20971;-78
2021/07/29 05:23:36;;;;;;;159.33;152.70;;;16.00;69.60;;;;;;6185269;23;20397;-79
2021/07/29 05:26:04;;;;;;;144.20;138.10;;;16.10;70.40;;;;;;6185836;23;20879;-77
2021/07/29 05:28:31;;;;;;;144.00;137.80;;;16.10;67.60;;;;;;6185710;23;20527;-80
2021/07/29 05:31:18;;;;;;;87.83;83.43;;;16.20;68.40;;;;;;6183521;23;20491;-84
2021/07/29 05:33:45;;;;;;;103.60;98.70;;;16.20;66.10;;;;;;6195195;23;20492;-79
2021/07/29 05:36:12;;;;;;;98.03;93.23;;;16.30;66.70;;;;;;6185138;23;20477;-82
2021/07/29 05:38:40;;;;;;;102.30;97.40;;;16.30;65.40;;;;;;6185542;23;20401;-83
2021/07/29 05:41:08;;;;;;;67.60;63.90;;;16.30;65.40;;;;;;6185093;23;21012;-82
2021/07/29 05:47:00;;;;;;;60.77;57.20;;;16.30;63.00;;;;;;6043641;23;20493;-85
2021/07/29 05:50:19;;;;;;;54.83;51.40;;;16.50;60.40;;;;;;6185285;23;20432;-88
2021/07/29 05:56:54;;;;;;;;;;;;;;;;;;;;;
2021/07/29 06:00:57;;;;;;;54.37;50.93;;;16.80;58.90;;;;;;5855953;24;20428;-85
2021/07/29 06:03:42;;;;;;;35.53;32.73;;;16.90;56.90;;;;;;5954340;23;20423;-84
2021/07/29 06:06:30;;;;;;;28.07;25.47;;;16.80;53.40;;;;;;5933334;23;20417;-85
2021/07/29 06:09:09;;;;;;;21.67;19.07;;;17.00;53.70;;;;;;5924318;24;20524;-85
2021/07/29 06:12:02;;;;;;;25.13;22.57;;;17.30;50.70;;;;;;5924500;23;20467;-85
2021/07/29 06:18:13;;;;;;;;;;;;;;;;;;;;;
2021/07/29 06:23:52;;;;;;;20.50;13.20;;;17.10;50.50;;;;;;5973127;23;20414;-84
2021/07/29 06:26:58;;;;;;;;;;;;;;;;;;;;;
2021/07/29 06:29:28;;;;;;;19.37;10.30;;;16.90;50.80;;;;;;6105219;23;20415;-84
2021/07/29 06:32:06;;;;;;;;;;;;;;;;;;;;;
2021/07/29 06:34:59;;;;;;;19.37;9.20;;;17.10;49.20;;;;;;6151515;23;20404;-84
2021/07/29 06:37:30;;;;;;;21.13;11.70;;;17.30;46.40;;;;;;6196900;23;20423;-86
2021/07/29 06:40:23;;;;;;;21.30;10.80;;;17.60;47.10;;;;;;6183788;23;20444;-84
2021/07/29 06:42:58;;;;;;;21.57;10.33;;;17.60;43.00;;;;;;6195049;23;20740;-84
2021/07/29 06:45:29;;;;;;;22.93;11.20;;;18.00;44.00;;;;;;6183963;23;20401;-84
2021/07/29 06:48:36;;;;;;;29.10;12.07;;;18.30;42.80;;;;;;6195108;23;20409;-84
2021/07/29 06:51:05;;;;;;;22.87;9.03;;;18.10;38.60;;;;;;6183704;23;20475;-84
2021/07/29 06:53:35;;;;;;;22.50;7.33;;;18.40;39.10;;;;;;6186581;23;20397;-83
2021/07/29 06:56:24;;;;;;;22.60;7.10;;;18.50;37.20;;;;;;6186911;23;20401;-86
2021/07/29 07:06:15;;;;;;;20.73;3.70;;;18.50;37.70;;;;;;6103021;23;20909;-83
2021/07/29 07:19:00;;;;;;;17.70;2.70;;;17.90;33.30;;;;;;5820144;24;20539;-85
2021/07/29 10:39:01;;;;;;;41.10;3.80;;;23.20;1.00;;;;;;5764800;24;20421;-85
2021/07/29 13:31:23;;;;;;;39.30;2.70;;;23.40;1.00;;;;;;5988021;24;20419;-84
2021/07/29 13:34:05;;;;;;;35.30;3.30;;;23.10;1.00;;;;;;5980212;24;20419;-84
2021/07/29 13:40:12;;;;;;;32.57;2.80;;;25.80;1.00;;;;;;5906216;24;20511;-85
2021/07/29 13:53:15;;;;;;;;;;;;;;;;;;;;;
2021/07/29 13:56:25;;;;;;;34.83;2.47;;;26.30;1.00;;;;;;6165296;23;20400;-85
2021/07/29 14:24:50;;;;;;;39.30;3.00;;;24.10;1.00;;;;;;5979993;24;20423;-84
2021/07/29 14:27:47;;;;;;;37.30;2.87;;;24.60;1.00;;;;;;5979523;24;20452;-84
2021/07/29 14:30:14;;;;;;;35.80;3.20;;;24.20;1.00;;;;;;5984670;23;20431;-79
2021/07/29 14:33:21;;;;;;;;;;;;;;;;;;;;;
2021/07/29 16:42:12;;;;;;;;;;;;;;;;;;;;;
2021/07/29 17:49:16;;;;;;;36.07;3.10;;;24.00;1.00;;;;;;5699660;25;20824;-81
2021/07/29 17:51:42;;;;;;;34.87;3.53;;;24.40;1.00;;;;;;5781309;24;20436;-81
2021/07/29 17:54:47;;;;;;;46.23;3.43;;;23.50;1.00;;;;;;5816978;24;20419;-84
2021/07/29 17:57:16;;;;;;;33.87;3.10;;;23.40;1.00;;;;;;5805596;24;20430;-84
2021/07/29 18:00:04;;;;;;;36.67;4.90;;;22.90;1.00;;;;;;5815423;24;20444;-84
2021/07/29 18:02:31;;;;;;;37.43;3.00;;;22.40;1.00;;;;;;5825649;24;20432;-83
2021/07/29 18:04:59;;;;;;;33.77;3.70;;;22.00;1.70;;;;;;5816843;24;20420;-81
2021/07/29 18:07:26;;;;;;;33.47;3.77;;;21.60;2.40;;;;;;5825659;24;20815;-80
2021/07/29 18:09:54;;;;;;;33.30;3.80;;;21.50;4.40;;;;;;5826405;24;21054;-79
2021/07/29 18:16:42;;;;;;;;;;;;;;;;;;;;;
2021/07/29 18:27:46;;;;;;;;;;;;;;;;;;;;;
2021/07/29 18:34:01;;;;;;;;;;;;;;;;;;;;;
2021/07/29 19:33:08;;;;;;;;;;;;;;;;;;;;;
2021/07/29 19:36:15;;;;;;;27.93;3.73;;;16.80;24.70;;;;;;5912223;23;20500;-86
2021/07/29 19:41:47;;;;;;;29.60;3.40;;;16.60;26.00;;;;;;6075738;23;20525;-82
